Helm, California
Current Conditions -  °F | °C
As of 1:56 PM on Friday 19 Dec 2014 (Local Time) from KNLC Reporting Station
Broken Clouds Broken Clouds  
Wind Chill: 14°   Ceiling: 8000
Heat Index: 14°   Visibility: 8mi
Dew Point: 11°   Wind: 14mph
Humidity: 81%   Direction: 120°ESE
Pressure: 30.18"   Gusts: NA
Location:  36.53°N, 120.1°W
Report Text: KNLC 192156Z 12012KT 8SM BKN080 BKN160 14/11 A3018 RMK AO2 SLP220 T01390106 $
Loading
Personal Weather Stations






























Interactive Weather Map New forecast layout! Learn more

10-Day Weather Forecast

Advertisements
Track Severe Weather on mobile